Time;durP1;ratioP1;P1;durP2;ratioP2;P2;SDS_P1;SDS_P2;PMS_P1;PMS_P2;Temp;Humidity;BMP_temperature;BMP_pressure;BME280_temperature;BME280_humidity;BME280_pressure;Samples;Min_cycle;Max_cycle;Signal;HPM_P1;HPM_P2
2023/03/18 00:00:10;;;;;;;6.55;2.88;;;;;;;13.74;53.91;99047.06;5013625;28;20063;-81
2023/03/18 00:02:39;;;;;;;6.07;3.03;;;;;;;13.72;53.77;99039.25;5014099;28;20140;-81
2023/03/18 00:05:07;;;;;;;6.60;2.75;;;;;;;13.69;54.11;99044.81;5031219;28;20065;-81
2023/03/18 00:07:36;;;;;;;5.25;2.55;;;;;;;13.66;54.28;99040.63;5030800;28;20064;-81
2023/03/18 00:10:05;;;;;;;6.68;2.80;;;;;;;13.63;54.36;99040.00;5013925;28;20050;-81
2023/03/18 00:12:32;;;;;;;6.70;2.75;;;;;;;13.61;54.57;99044.59;5031097;28;20059;-81
2023/03/18 00:14:59;;;;;;;5.53;3.03;;;;;;;13.57;54.57;99046.63;5031336;28;20049;-80
2023/03/18 00:17:26;;;;;;;5.95;3.13;;;;;;;13.54;54.72;99049.53;5030913;28;20622;-81
2023/03/18 00:19:53;;;;;;;6.18;3.17;;;;;;;13.52;55.00;99052.31;5031333;28;20096;-81
2023/03/18 00:22:20;;;;;;;4.72;2.80;;;;;;;13.50;54.95;99045.47;5031196;28;20058;-81
2023/03/18 00:24:47;;;;;;;7.25;2.97;;;;;;;13.48;55.20;99042.09;5013335;28;20513;-81
2023/03/18 00:27:14;;;;;;;6.10;3.17;;;;;;;13.46;55.29;99047.47;5030615;28;20072;-81
2023/03/18 00:29:41;;;;;;;4.30;2.70;;;;;;;13.43;55.49;99056.50;5031338;28;20053;-80
2023/03/18 00:32:08;;;;;;;9.93;3.40;;;;;;;13.43;55.30;99048.56;5013740;28;20511;-80
2023/03/18 00:34:35;;;;;;;7.32;2.95;;;;;;;13.43;55.56;99053.03;5013576;28;20057;-81
2023/03/18 00:37:02;;;;;;;7.45;3.03;;;;;;;13.41;55.72;99053.13;5030275;28;20045;-80
2023/03/18 00:39:31;;;;;;;6.60;2.75;;;;;;;13.40;55.56;99048.81;5030950;28;20053;-81
2023/03/18 00:42:06;;;;;;;5.53;2.70;;;;;;;13.40;55.86;99054.13;5030880;28;20057;-81
2023/03/18 00:44:33;;;;;;;5.22;2.83;;;;;;;13.39;55.91;99049.75;5030934;28;20140;-81
2023/03/18 00:47:00;;;;;;;8.77;2.92;;;;;;;13.38;56.23;99047.28;5029597;28;20088;-81
2023/03/18 00:49:27;;;;;;;6.20;3.28;;;;;;;13.38;56.45;99041.97;5030799;28;20053;-81
2023/03/18 00:51:53;;;;;;;6.35;2.88;;;;;;;13.38;56.57;99049.91;5013231;28;20061;-81
2023/03/18 00:54:21;;;;;;;10.70;3.42;;;;;;;13.37;56.56;99043.78;5030198;28;20520;-81
2023/03/18 00:56:48;;;;;;;6.57;3.20;;;;;;;13.38;56.64;99042.81;5030060;28;20085;-81
2023/03/18 00:59:15;;;;;;;8.27;3.03;;;;;;;13.39;56.65;99046.31;5030829;28;20144;-80
2023/03/18 01:01:42;;;;;;;7.07;3.08;;;;;;;13.38;56.95;99042.81;5013410;28;20123;-80
2023/03/18 01:04:09;;;;;;;7.95;2.85;;;;;;;13.38;56.96;99032.22;5030718;28;20569;-80
2023/03/18 01:06:37;;;;;;;7.18;3.10;;;;;;;13.38;57.00;99032.22;5029829;28;20144;-81
2023/03/18 01:09:07;;;;;;;6.45;3.05;;;;;;;13.38;57.06;99032.22;5012881;28;20061;-81
2023/03/18 01:11:34;;;;;;;8.25;3.13;;;;;;;13.38;56.97;99041.97;5030893;28;20053;-81
2023/03/18 01:14:02;;;;;;;6.85;3.22;;;;;;;13.37;57.10;99040.28;5030625;28;20081;-81
2023/03/18 01:16:29;;;;;;;5.85;2.75;;;;;;;13.36;57.35;99034.16;5030044;28;20140;-81
2023/03/18 01:18:56;;;;;;;10.05;3.25;;;;;;;13.35;57.38;99042.22;5030493;28;20050;-81
2023/03/18 01:21:23;;;;;;;5.03;2.85;;;;;;;13.33;57.47;99039.69;5030847;28;20195;-80
2023/03/18 01:23:52;;;;;;;8.23;3.60;;;;;;;13.32;57.58;99031.88;5030577;28;20520;-81
2023/03/18 01:26:18;;;;;;;8.88;2.90;;;;;;;13.31;57.66;99030.22;5030505;28;20058;-81
2023/03/18 01:28:46;;;;;;;6.47;2.83;;;;;;;13.29;57.79;99028.53;4904474;22;20057;-82
2023/03/18 01:31:12;;;;;;;5.72;3.28;;;;;;;13.28;57.65;99016.25;5029658;28;20065;-82
2023/03/18 01:33:40;;;;;;;5.57;3.08;;;;;;;13.27;57.82;99024.34;5030012;28;20061;-81
2023/03/18 01:36:07;;;;;;;8.40;3.47;;;;;;;13.28;57.71;99023.38;5011782;28;20081;-81
2023/03/18 01:38:34;;;;;;;8.23;3.00;;;;;;;13.25;58.04;99026.25;5029666;28;20054;-81
2023/03/18 01:41:01;;;;;;;8.20;3.35;;;;;;;13.25;58.41;99036.81;5029974;28;20057;-81
2023/03/18 01:43:32;;;;;;;9.00;3.25;;;;;;;13.22;58.68;99030.00;5029772;28;20504;-81
2023/03/18 01:46:01;;;;;;;7.68;3.65;;;;;;;13.20;58.82;99031.91;5029475;28;20053;-81
2023/03/18 01:48:32;;;;;;;8.18;3.47;;;;;;;13.19;58.74;99042.63;5029357;28;20482;-81
2023/03/18 01:51:04;;;;;;;6.78;3.15;;;;;;;13.19;59.04;99039.97;5029679;28;20428;-81
2023/03/18 01:53:35;;;;;;;5.00;3.30;;;;;;;13.16;59.38;99041.88;5029748;28;20064;-81
2023/03/18 01:56:02;;;;;;;9.23;3.70;;;;;;;13.18;59.03;99046.19;5029174;28;20068;-81
2023/03/18 01:58:35;;;;;;;7.55;3.55;;;;;;;13.14;59.72;99050.91;5029139;28;20060;-81
2023/03/18 02:01:18;;;;;;;7.78;3.78;;;;;;;13.12;60.18;99043.09;5011969;28;20526;-81
2023/03/18 02:03:47;;;;;;;7.50;3.15;;;;;;;13.16;59.26;99044.53;5029897;28;20103;-81
2023/03/18 02:06:13;;;;;;;7.18;3.50;;;;;;;13.16;59.28;99049.81;5031443;28;20057;-81
2023/03/18 02:08:40;;;;;;;9.05;3.50;;;;;;;13.15;59.55;99047.28;5032922;28;20060;-81
2023/03/18 02:11:09;;;;;;;10.75;3.70;;;;;;;13.15;59.94;99053.41;5015643;28;20069;-81
2023/03/18 02:13:41;;;;;;;5.38;3.40;;;;;;;13.15;59.87;99060.50;5033051;28;20488;-81
2023/03/18 02:16:20;;;;;;;11.48;4.10;;;;;;;13.14;60.41;99059.66;5033156;28;20068;-81
2023/03/18 02:18:50;;;;;;;9.38;3.83;;;;;;;13.16;60.39;99052.44;5032928;28;20060;-81
2023/03/18 02:21:39;;;;;;;7.82;3.72;;;;;;;13.15;60.75;99052.56;5032944;28;20067;-81
2023/03/18 02:24:23;;;;;;;8.60;3.40;;;;;;;13.21;59.92;99051.25;5015198;28;20092;-81
2023/03/18 02:27:15;;;;;;;6.28;3.92;;;;;;;13.15;60.75;99048.13;5014746;28;20049;-81
2023/03/18 02:29:43;;;;;;;8.70;4.00;;;;;;;13.20;59.82;99052.22;5014112;28;20053;-81
2023/03/18 02:32:11;;;;;;;8.45;3.38;;;;;;;13.17;60.18;99050.66;5031073;28;20059;-80
2023/03/18 02:34:39;;;;;;;7.68;4.18;;;;;;;13.18;60.31;99059.41;5032156;28;20050;-81
2023/03/18 02:37:10;;;;;;;6.55;3.63;;;;;;;13.18;60.17;99057.63;5031870;28;20451;-81
2023/03/18 02:39:36;;;;;;;8.02;3.78;;;;;;;13.18;60.41;99062.06;5031216;28;20089;-81
2023/03/18 02:42:03;;;;;;;6.47;3.70;;;;;;;13.16;60.57;99059.56;5032359;28;20504;-81
2023/03/18 02:44:30;;;;;;;11.45;3.80;;;;;;;13.16;60.71;99060.38;5032690;28;20147;-81
2023/03/18 02:47:01;;;;;;;9.02;3.67;;;;;;;13.14;60.92;99069.41;5031847;28;20061;-82
2023/03/18 02:49:29;;;;;;;6.05;3.53;;;;;;;13.17;60.82;99066.50;5031464;28;20061;-82
2023/03/18 02:51:55;;;;;;;8.20;4.22;;;;;;;13.18;60.77;99067.34;5031198;28;20504;-82
2023/03/18 02:54:26;;;;;;;7.65;3.75;;;;;;;13.17;61.01;99069.16;5031300;28;20503;-81
2023/03/18 02:56:53;;;;;;;8.10;3.70;;;;;;;13.19;60.74;99069.84;5031633;28;20077;-81
2023/03/18 02:59:20;;;;;;;6.47;4.03;;;;;;;13.19;61.03;99074.31;5032342;28;20049;-81
2023/03/18 03:01:50;;;;;;;8.48;3.75;;;;;;;13.20;60.93;99076.00;5032255;28;20064;-81
2023/03/18 03:04:19;;;;;;;8.15;4.10;;;;;;;13.21;60.82;99077.66;5031307;28;20362;-81
2023/03/18 03:06:47;;;;;;;11.13;3.97;;;;;;;13.21;60.92;99078.53;5031406;28;20065;-80
2023/03/18 03:09:15;;;;;;;9.48;3.78;;;;;;;13.21;60.99;99078.53;5030829;28;20057;-81
2023/03/18 03:11:44;;;;;;;8.90;4.07;;;;;;;13.22;61.01;99085.47;5032135;28;20068;-81
2023/03/18 03:14:11;;;;;;;10.95;4.10;;;;;;;13.24;61.20;99088.00;5031980;28;20058;-81
2023/03/18 03:16:38;;;;;;;5.70;3.70;;;;;;;13.25;60.97;99089.69;5029742;28;20061;-81
2023/03/18 03:19:05;;;;;;;5.57;3.75;;;;;;;13.23;61.10;99081.88;5032005;28;20057;-81
2023/03/18 03:21:34;;;;;;;10.27;4.03;;;;;;;13.25;60.96;99079.13;5031912;28;20057;-81
2023/03/18 03:24:04;;;;;;;10.40;4.20;;;;;;;13.23;61.33;99078.41;5031914;28;20045;-81
2023/03/18 03:26:32;;;;;;;10.32;4.22;;;;;;;13.25;60.89;99073.81;5013771;28;20049;-81
2023/03/18 03:28:59;;;;;;;7.63;3.90;;;;;;;13.26;61.22;99079.00;5013886;28;20053;-81
2023/03/18 03:31:26;;;;;;;6.65;3.65;;;;;;;13.25;60.95;99074.69;5014148;28;20499;-81
2023/03/18 03:33:52;;;;;;;6.03;3.65;;;;;;;13.26;61.01;99076.34;5014143;28;20073;-81
2023/03/18 03:36:19;;;;;;;8.20;3.83;;;;;;;13.27;61.03;99072.75;5013872;28;20096;-81
2023/03/18 03:38:45;;;;;;;8.30;3.72;;;;;;;13.26;61.00;99075.50;5031441;28;20061;-81
2023/03/18 03:41:12;;;;;;;6.68;3.88;;;;;;;13.23;61.01;99076.59;5031357;28;20495;-81
2023/03/18 03:43:40;;;;;;;8.73;4.03;;;;;;;13.21;61.05;99083.81;5031446;28;20060;-81
2023/03/18 03:46:08;;;;;;;7.78;3.80;;;;;;;13.19;61.09;99082.25;5031236;28;20080;-81
2023/03/18 03:48:35;;;;;;;7.30;4.05;;;;;;;13.18;61.23;99093.75;5013556;28;20504;-80
2023/03/18 03:51:02;;;;;;;6.68;3.80;;;;;;;13.14;61.08;99099.31;5031279;28;20064;-80
2023/03/18 03:53:29;;;;;;;7.60;3.85;;;;;;;13.13;61.22;99089.69;5031343;28;20069;-80
2023/03/18 03:55:55;;;;;;;7.55;4.00;;;;;;;13.11;61.23;99083.69;5013446;28;20337;-80
2023/03/18 03:58:25;;;;;;;8.65;4.53;;;;;;;13.11;61.47;99099.53;5030886;28;20077;-80
2023/03/18 04:00:51;;;;;;;7.80;4.18;;;;;;;13.09;61.46;99106.72;5031197;28;20060;-80
2023/03/18 04:03:18;;;;;;;9.98;4.75;;;;;;;13.08;61.71;99102.41;5013398;28;20068;-81
2023/03/18 04:05:44;;;;;;;9.07;3.83;;;;;;;13.09;61.88;99100.63;5030580;28;20053;-80
2023/03/18 04:08:11;;;;;;;8.18;3.55;;;;;;;13.10;61.73;99099.66;5030839;28;20063;-81
2023/03/18 04:10:38;;;;;;;6.13;3.80;;;;;;;13.09;61.81;99098.81;5013620;28;20064;-81
2023/03/18 04:13:06;;;;;;;8.88;3.55;;;;;;;13.12;62.01;99106.50;5013519;28;20053;-81
2023/03/18 04:15:33;;;;;;;8.57;3.60;;;;;;;13.12;62.00;99106.50;5013035;28;20057;-80
2023/03/18 04:18:05;;;;;;;8.02;4.45;;;;;;;13.15;61.79;99110.69;5030423;28;20558;-81
2023/03/18 04:20:33;;;;;;;9.20;4.20;;;;;;;13.15;62.11;99114.19;5030841;28;20471;-81
2023/03/18 04:23:00;;;;;;;7.53;4.00;;;;;;;13.17;61.88;99119.38;5030629;28;20403;-81
2023/03/18 04:25:26;;;;;;;7.80;4.38;;;;;;;13.16;62.08;99107.94;5030566;28;20488;-81
2023/03/18 04:27:53;;;;;;;13.30;4.55;;;;;;;13.19;61.85;99120.06;5012333;28;20059;-81
2023/03/18 04:30:22;;;;;;;8.57;3.92;;;;;;;13.19;61.98;99121.88;5030661;28;20053;-81
2023/03/18 04:32:49;;;;;;;7.97;4.13;;;;;;;13.18;61.99;99110.47;5013246;28;20065;-81
2023/03/18 04:35:16;;;;;;;6.75;4.00;;;;;;;13.18;61.86;99110.47;5012726;28;20061;-81
2023/03/18 04:37:43;;;;;;;7.38;4.20;;;;;;;13.19;61.82;99112.16;5012639;28;20053;-81
2023/03/18 04:40:11;;;;;;;10.10;4.40;;;;;;;13.21;61.91;99114.66;5013041;28;20069;-81
2023/03/18 04:42:38;;;;;;;7.10;4.00;;;;;;;13.23;62.02;99118.06;5030568;28;20061;-81
2023/03/18 04:45:05;;;;;;;9.52;4.13;;;;;;;13.24;62.01;99112.63;5030150;28;20057;-81
2023/03/18 04:47:33;;;;;;;10.98;4.40;;;;;;;13.26;62.04;99117.78;5029987;28;20049;-80
2023/03/18 04:50:01;;;;;;;12.75;4.88;;;;;;;13.26;61.79;99118.63;5030002;28;20065;-80
2023/03/18 04:52:27;;;;;;;11.93;4.43;;;;;;;13.27;61.90;99125.59;5030554;28;20057;-81
2023/03/18 04:54:54;;;;;;;10.32;4.68;;;;;;;13.27;61.88;99130.88;5012352;28;20058;-80
2023/03/18 04:57:21;;;;;;;8.40;5.05;;;;;;;13.28;61.89;99124.63;5029974;28;20103;-80
2023/03/18 04:59:47;;;;;;;9.32;4.57;;;;;;;13.28;61.82;99126.44;5030194;28;20061;-80
2023/03/18 05:02:14;;;;;;;11.13;4.78;;;;;;;13.27;61.85;99120.31;5012685;28;20059;-80
2023/03/18 05:04:40;;;;;;;7.72;4.38;;;;;;;13.27;61.96;99125.59;5029940;28;20557;-80
2023/03/18 05:07:09;;;;;;;10.45;4.63;;;;;;;13.28;61.90;99131.75;5029379;28;20057;-81
2023/03/18 05:09:35;;;;;;;10.63;4.25;;;;;;;13.27;61.89;99127.41;5030285;28;20454;-81
2023/03/18 05:12:03;;;;;;;8.63;4.70;;;;;;;13.27;61.71;99132.72;5012693;28;20053;-81
2023/03/18 05:14:30;;;;;;;6.85;4.50;;;;;;;13.25;61.94;99127.53;5030275;28;20061;-81
2023/03/18 05:16:56;;;;;;;10.75;4.82;;;;;;;13.24;62.05;99139.03;5011908;28;20061;-80
2023/03/18 05:19:24;;;;;;;10.85;4.70;;;;;;;13.24;62.03;99140.88;5012718;28;20500;-81
2023/03/18 05:21:50;;;;;;;10.10;4.82;;;;;;;13.22;61.93;99138.34;5012431;28;20511;-81
2023/03/18 05:24:16;;;;;;;14.02;5.40;;;;;;;13.22;62.17;99138.34;5030131;28;20053;-80
2023/03/18 05:26:43;;;;;;;12.40;5.40;;;;;;;13.21;62.15;99135.81;5011990;28;20059;-81
2023/03/18 05:29:10;;;;;;;11.70;5.05;;;;;;;13.21;62.21;99141.09;5012367;28;20057;-81
2023/03/18 05:31:37;;;;;;;9.85;4.47;;;;;;;13.20;62.09;99142.06;5029888;28;20057;-81
2023/03/18 05:34:05;;;;;;;12.68;4.82;;;;;;;13.18;62.23;99141.31;5012138;28;20495;-81
2023/03/18 05:36:32;;;;;;;11.32;4.75;;;;;;;13.18;62.19;99144.81;5029682;28;20111;-81
2023/03/18 05:38:58;;;;;;;10.35;5.43;;;;;;;13.16;62.39;99144.94;5029640;28;20049;-81
2023/03/18 05:41:25;;;;;;;11.35;5.95;;;;;;;13.15;62.27;99142.41;5016011;28;20492;-81
2023/03/18 05:43:51;;;;;;;12.07;6.10;;;;;;;13.14;62.47;99151.31;5016075;28;20054;-81
2023/03/18 05:46:18;;;;;;;10.95;5.97;;;;;;;13.13;62.60;99155.75;5015662;28;20475;-81
2023/03/18 05:48:44;;;;;;;10.60;5.35;;;;;;;13.12;62.59;99159.34;5033469;28;20132;-81
2023/03/18 05:51:11;;;;;;;13.27;5.78;;;;;;;13.12;62.77;99154.06;5033542;28;20073;-81
2023/03/18 05:53:38;;;;;;;12.55;6.22;;;;;;;13.11;62.83;99162.97;5033685;28;20054;-81
2023/03/18 05:56:04;;;;;;;13.32;6.75;;;;;;;13.12;62.97;99169.09;5033333;28;20049;-81
2023/03/18 05:58:31;;;;;;;10.75;6.28;;;;;;;13.13;63.10;99160.19;5033192;28;20074;-81
2023/03/18 06:00:58;;;;;;;13.18;6.22;;;;;;;13.13;62.83;99166.31;5015918;28;20573;-81
2023/03/18 06:03:26;;;;;;;11.45;6.43;;;;;;;13.13;62.84;99153.09;5033903;28;20468;-81
2023/03/18 06:05:53;;;;;;;10.95;6.13;;;;;;;13.14;63.06;99154.81;5033191;28;20061;-81
2023/03/18 06:08:19;;;;;;;12.43;6.28;;;;;;;13.13;63.09;99163.66;5032989;28;20053;-81
2023/03/18 06:10:47;;;;;;;10.80;6.35;;;;;;;13.14;63.12;99162.72;5015585;28;20515;-81
2023/03/18 06:13:14;;;;;;;13.77;6.63;;;;;;;13.14;63.18;99160.09;5015465;28;20053;-81
2023/03/18 06:15:40;;;;;;;13.48;7.07;;;;;;;13.14;63.24;99162.72;5015439;28;20129;-81
2023/03/18 06:18:07;;;;;;;18.20;7.72;;;;;;;13.12;63.37;99163.81;5032653;28;20057;-81
2023/03/18 06:20:34;;;;;;;15.48;7.68;;;;;;;13.12;63.28;99183.13;5033274;28;20427;-81
2023/03/18 06:23:01;;;;;;;13.57;6.75;;;;;;;13.11;63.32;99184.09;5015596;28;20064;-81
2023/03/18 06:25:27;;;;;;;14.15;7.18;;;;;;;13.11;63.52;99184.09;5014814;28;20475;-80
2023/03/18 06:27:54;;;;;;;13.20;7.32;;;;;;;13.10;63.40;99187.72;5032332;28;20514;-80
2023/03/18 06:30:20;;;;;;;13.05;7.20;;;;;;;13.11;63.76;99184.09;5032891;28;20057;-81
2023/03/18 06:32:47;;;;;;;15.95;7.57;;;;;;;13.11;63.58;99189.38;5015185;28;20653;-80
2023/03/18 06:35:15;;;;;;;14.88;8.23;;;;;;;13.11;63.87;99178.81;5014839;28;20145;-80
2023/03/18 06:37:42;;;;;;;15.45;7.95;;;;;;;13.12;63.86;99188.41;5014688;28;20057;-80
2023/03/18 06:40:11;;;;;;;11.98;7.57;;;;;;;13.13;63.93;99191.91;5015199;28;20061;-80
2023/03/18 06:42:38;;;;;;;14.10;7.50;;;;;;;13.13;63.96;99192.72;5032329;28;20053;-80
2023/03/18 06:45:05;;;;;;;11.90;7.63;;;;;;;13.14;63.76;99198.88;5013997;28;20064;-80
2023/03/18 06:47:31;;;;;;;10.85;7.70;;;;;;;13.13;63.87;99194.56;5032011;28;20490;-80
2023/03/18 06:49:58;;;;;;;13.25;7.90;;;;;;;13.12;64.04;99195.53;5032393;28;20058;-80
2023/03/18 06:52:25;;;;;;;13.23;7.47;;;;;;;13.09;64.17;99211.59;5031692;28;20069;-80
2023/03/18 06:54:52;;;;;;;14.90;7.45;;;;;;;13.06;63.98;99214.47;5031845;28;20065;-80
2023/03/18 06:57:19;;;;;;;14.98;7.55;;;;;;;13.03;64.45;99213.75;5031483;28;20073;-80
2023/03/18 06:59:46;;;;;;;17.60;8.65;;;;;;;13.01;64.60;99215.66;5014236;28;20053;-80
2023/03/18 07:02:14;;;;;;;16.73;8.75;;;;;;;13.00;64.70;99207.84;5031773;28;20049;-80
2023/03/18 07:04:41;;;;;;;14.07;7.70;;;;;;;12.99;65.01;99216.75;5013953;28;20065;-80
2023/03/18 07:07:07;;;;;;;15.88;8.63;;;;;;;12.98;64.99;99215.06;5031128;28;20076;-80
2023/03/18 07:09:35;;;;;;;18.85;8.07;;;;;;;12.97;65.31;99214.22;5032004;28;20067;-80
2023/03/18 07:12:01;;;;;;;12.25;7.95;;;;;;;12.99;65.49;99214.94;5032002;28;20111;-80
2023/03/18 07:14:28;;;;;;;16.40;8.57;;;;;;;13.00;65.63;99205.19;5032182;28;20060;-80
2023/03/18 07:16:54;;;;;;;14.40;8.80;;;;;;;13.04;66.01;99214.59;5013506;28;20057;-80
2023/03/18 07:19:21;;;;;;;15.07;8.75;;;;;;;13.05;66.14;99221.56;5031757;28;20103;-80
2023/03/18 07:21:48;;;;;;;12.98;9.32;;;;;;;13.08;66.39;99223.13;5014079;28;20076;-80
2023/03/18 07:24:16;;;;;;;16.92;9.75;;;;;;;13.11;66.59;99236.94;5031852;28;20053;-80
2023/03/18 07:26:42;;;;;;;13.98;9.07;;;;;;;13.16;66.80;99239.25;5031144;28;20061;-80
2023/03/18 07:31:47;;;;;;;13.63;9.45;;;;;;;13.25;66.91;99235.03;4990963;28;20070;-81
2023/03/18 07:34:16;;;;;;;12.63;9.52;;;;;;;13.32;66.83;99238.06;4992819;28;20047;-81
2023/03/18 07:36:43;;;;;;;13.05;9.18;;;;;;;13.36;66.78;99243.00;4991959;28;20062;-79
2023/03/18 07:39:11;;;;;;;16.27;10.55;;;;;;;13.41;66.95;99240.84;4992888;28;20145;-78
2023/03/18 07:41:37;;;;;;;17.90;11.30;;;;;;;13.46;67.06;99244.94;4992793;28;20058;-79
2023/03/18 07:44:06;;;;;;;22.15;11.70;;;;;;;13.50;67.16;99241.94;4992696;28;20145;-80
2023/03/18 07:46:33;;;;;;;20.17;11.90;;;;;;;13.57;67.22;99249.41;4991942;28;20070;-80
2023/03/18 07:48:59;;;;;;;17.42;11.77;;;;;;;13.61;67.21;99250.88;4992449;28;20054;-80
2023/03/18 07:51:26;;;;;;;16.17;10.88;;;;;;;13.64;66.96;99246.16;4992355;28;20093;-80
2023/03/18 07:53:53;;;;;;;17.60;11.05;;;;;;;13.67;66.52;99247.72;4992511;28;20058;-79
2023/03/18 07:56:20;;;;;;;17.38;10.45;;;;;;;13.68;66.53;99254.69;4992072;28;20085;-80
2023/03/18 07:58:46;;;;;;;14.95;10.10;;;;;;;13.68;66.65;99260.84;4991848;28;20066;-80
2023/03/18 08:01:17;;;;;;;19.70;10.88;;;;;;;13.70;66.66;99262.50;4992190;28;20058;-80
2023/03/18 08:03:45;;;;;;;18.58;11.40;;;;;;;13.70;67.28;99267.78;4991259;28;20503;-80
2023/03/18 08:06:14;;;;;;;15.65;11.73;;;;;;;13.70;67.54;99268.66;4991706;28;20418;-80
2023/03/18 08:08:41;;;;;;;17.40;12.70;;;;;;;13.75;67.59;99260.38;4991816;28;20085;-78
2023/03/18 08:11:09;;;;;;;22.83;13.18;;;;;;;13.81;67.83;99267.81;4992309;28;20062;-80
2023/03/18 08:13:36;;;;;;;19.63;13.15;;;;;;;13.84;67.72;99267.56;4991900;28;20088;-80
2023/03/18 08:16:03;;;;;;;20.55;13.48;;;;;;;13.90;67.88;99275.03;4991476;28;20050;-80
2023/03/18 08:18:30;;;;;;;20.80;14.60;;;;;;;13.96;67.64;99275.50;4991370;28;20419;-78
2023/03/18 08:20:56;;;;;;;18.73;13.82;;;;;;;14.02;67.53;99288.25;4991538;28;20498;-80
2023/03/18 08:23:24;;;;;;;18.35;13.20;;;;;;;14.05;67.55;99288.84;4991993;28;20066;-80
2023/03/18 08:25:51;;;;;;;17.30;12.38;;;;;;;14.12;67.43;99294.50;4992207;28;20058;-80
2023/03/18 08:28:18;;;;;;;16.33;11.93;;;;;;;14.14;67.27;99300.50;4991634;28;20062;-81
2023/03/18 08:30:45;;;;;;;19.23;11.60;;;;;;;14.19;67.53;99298.34;4991912;28;20054;-80
2023/03/18 08:33:12;;;;;;;19.63;11.77;;;;;;;14.23;67.25;99300.72;4991647;28;20054;-80
2023/03/18 08:35:42;;;;;;;18.65;12.77;;;;;;;14.26;67.40;99285.44;4991556;28;20058;-80
2023/03/18 08:38:09;;;;;;;18.55;11.63;;;;;;;14.31;67.47;99293.00;4984936;28;20447;-80
2023/03/18 08:40:35;;;;;;;20.50;13.00;;;;;;;14.37;67.34;99289.03;4977806;28;20055;-80
2023/03/18 08:43:02;;;;;;;21.67;13.65;;;;;;;14.42;67.52;99292.13;4978877;28;20134;-80
2023/03/18 08:45:29;;;;;;;20.20;12.65;;;;;;;14.49;67.58;99295.13;4971647;28;20142;-81
2023/03/18 08:47:56;;;;;;;20.70;13.75;;;;;;;14.56;67.96;99298.97;4971998;28;20054;-80
2023/03/18 08:50:27;;;;;;;17.38;13.32;;;;;;;14.65;67.82;99305.34;4970790;28;20183;-80
2023/03/18 08:52:58;;;;;;;22.08;13.65;;;;;;;14.75;67.81;99305.41;4985521;28;20059;-80
2023/03/18 08:55:36;;;;;;;18.45;12.88;;;;;;;14.82;67.19;99303.97;4971922;28;20421;-80
2023/03/18 08:58:07;;;;;;;20.50;13.32;;;;;;;14.94;66.86;99308.28;4971026;28;20151;-80
2023/03/18 09:00:36;;;;;;;21.98;13.13;;;;;;;14.99;66.71;99310.53;4970802;28;20062;-80
2023/03/18 09:03:04;;;;;;;18.30;12.93;;;;;;;15.04;66.49;99310.16;4969833;28;20274;-80
2023/03/18 09:05:31;;;;;;;18.60;13.48;;;;;;;15.05;66.10;99312.69;4971372;28;20057;-80
2023/03/18 09:07:59;;;;;;;19.25;13.10;;;;;;;15.07;65.91;99313.38;4971525;28;20522;-80
2023/03/18 09:10:26;;;;;;;19.27;13.10;;;;;;;15.07;65.91;99320.50;4971606;28;20110;-80
2023/03/18 09:12:52;;;;;;;20.40;12.25;;;;;;;15.07;65.75;99315.22;4971672;28;20069;-80
2023/03/18 09:15:19;;;;;;;15.60;11.27;;;;;;;15.06;65.75;99322.31;4971208;28;20091;-78
2023/03/18 09:17:47;;;;;;;16.70;11.88;;;;;;;15.05;65.95;99325.09;4971482;28;20411;-80
2023/03/18 09:20:29;;;;;;;20.13;12.65;;;;;;;15.06;65.73;99327.59;4971746;28;20142;-79
2023/03/18 09:22:56;;;;;;;20.25;12.85;;;;;;;15.05;65.71;99330.38;4971586;28;20055;-80
2023/03/18 09:25:23;;;;;;;24.10;11.88;;;;;;;15.05;65.73;99341.84;4971420;28;20173;-79
2023/03/18 09:27:50;;;;;;;20.85;12.18;;;;;;;15.07;66.16;99331.94;4971426;28;20114;-80
2023/03/18 09:30:18;;;;;;;21.13;11.55;;;;;;;15.12;66.34;99336.88;4971722;28;20069;-80
2023/03/18 09:32:44;;;;;;;18.83;12.68;;;;;;;15.16;66.57;99325.03;4971764;28;20066;-80
2023/03/18 09:35:11;;;;;;;20.02;13.25;;;;;;;15.23;66.72;99323.56;4971230;28;20054;-80
2023/03/18 09:37:39;;;;;;;21.95;13.85;;;;;;;15.31;66.46;99319.41;4971178;28;20134;-80
2023/03/18 09:40:07;;;;;;;17.27;12.73;;;;;;;15.38;66.63;99325.91;4971607;28;20468;-80
2023/03/18 09:42:54;;;;;;;23.60;12.73;;;;;;;15.41;65.70;99323.00;4971647;28;20153;-80
2023/03/18 09:45:26;;;;;;;16.00;11.45;;;;;;;15.53;65.46;99336.16;4971072;28;20043;-80
2023/03/18 09:48:08;;;;;;;19.53;13.40;;;;;;;15.58;65.52;99344.56;4971224;28;20058;-80
2023/03/18 09:50:43;;;;;;;14.68;12.30;;;;;;;15.67;65.67;99337.66;4971682;28;20145;-80
2023/03/18 09:53:19;;;;;;;16.55;13.10;;;;;;;15.74;65.57;99347.59;4971697;28;20137;-81
2023/03/18 09:55:57;;;;;;;18.48;12.48;;;;;;;15.83;65.46;99348.66;4971186;28;20059;-80
2023/03/18 09:59:06;;;;;;;18.85;12.88;;;;;;;15.88;64.46;99350.88;4971024;28;20055;-81
2023/03/18 10:01:38;;;;;;;19.25;12.27;;;;;;;15.97;63.93;99354.59;4963190;28;20073;-80
2023/03/18 10:04:27;;;;;;;19.25;13.68;;;;;;;15.98;63.98;99346.50;4971339;28;20110;-80
2023/03/18 10:07:00;;;;;;;17.38;13.25;;;;;;;16.09;64.96;99348.25;4970254;28;20061;-80
2023/03/18 10:09:38;;;;;;;19.55;13.38;;;;;;;16.19;64.50;99356.25;4970344;28;20090;-79
2023/03/18 10:12:22;;;;;;;20.05;13.82;;;;;;;16.32;63.27;99357.81;4971250;28;20066;-80
2023/03/18 10:15:00;;;;;;;20.42;13.55;;;;;;;16.45;63.19;99360.22;4970160;28;20149;-80
2023/03/18 10:17:37;;;;;;;19.48;13.35;;;;;;;16.56;62.71;99367.25;4969636;28;20142;-80
2023/03/18 10:20:14;;;;;;;19.70;14.55;;;;;;;16.65;62.80;99366.44;4969659;28;20086;-80
2023/03/18 10:23:00;;;;;;;18.40;14.30;;;;;;;16.67;61.76;99381.25;4971015;28;20065;-80
2023/03/18 10:25:45;;;;;;;20.52;13.35;;;;;;;16.74;61.97;99376.22;4970370;28;20054;-80
2023/03/18 10:28:49;;;;;;;15.98;11.40;;;;;;;16.79;61.09;99373.19;4974130;28;20055;-81
2023/03/18 10:31:25;;;;;;;;;;;;;;;16.86;60.92;99379.59;4974910;28;20062;-80
2023/03/18 10:34:22;;;;;;;16.27;11.88;;;;;;;16.92;61.11;99378.22;4974488;28;20383;-80
2023/03/18 10:37:37;;;;;;;14.98;12.70;;;;;;;16.99;61.01;99370.53;4965523;28;20225;-81
2023/03/18 10:40:15;;;;;;;15.43;12.55;;;;;;;17.09;61.74;99371.44;4970846;28;20050;-82
2023/03/18 10:42:43;;;;;;;18.90;12.70;;;;;;;17.21;62.38;99371.25;4974599;28;20090;-80
2023/03/18 10:45:27;;;;;;;17.27;12.13;;;;;;;17.26;60.31;99374.34;4972883;28;20059;-81
2023/03/18 10:48:04;;;;;;;14.25;10.57;;;;;;;17.36;60.83;99372.53;4974092;28;20057;-81
2023/03/18 10:50:36;;;;;;;16.02;11.30;;;;;;;17.49;62.01;99374.06;4974131;28;20642;-81
2023/03/18 10:53:20;;;;;;;13.85;10.32;;;;;;;17.53;60.06;99378.13;4974201;28;20618;-82
2023/03/18 10:56:05;;;;;;;15.68;10.23;;;;;;;17.60;59.55;99386.38;4973757;28;20055;-81
2023/03/18 10:58:33;;;;;;;12.27;10.05;;;;;;;17.65;60.23;99378.81;4973810;28;20059;-81
2023/03/18 11:00:59;;;;;;;15.15;10.30;;;;;;;17.66;60.68;99381.31;4973903;28;20515;-82
2023/03/18 11:03:31;;;;;;;12.65;9.95;;;;;;;17.66;59.32;99380.47;4974031;28;20109;-81
2023/03/18 11:06:01;;;;;;;12.25;8.95;;;;;;;17.74;60.08;99383.25;4973848;28;20090;-81
2023/03/18 11:08:33;;;;;;;12.80;9.63;;;;;;;17.81;60.17;99376.38;4973752;28;20062;-81
2023/03/18 11:11:16;;;;;;;12.07;9.45;;;;;;;17.85;57.52;99387.56;4973861;28;20122;-79
2023/03/18 11:13:54;;;;;;;11.55;8.55;;;;;;;17.90;57.58;99395.16;4988973;28;20070;-81
2023/03/18 11:16:45;;;;;;;11.98;8.70;;;;;;;17.86;58.24;99385.75;4973422;28;20058;-81
2023/03/18 11:19:40;;;;;;;13.52;8.68;;;;;;;17.89;57.85;99390.78;4973527;28;20051;-79
2023/03/18 11:22:18;;;;;;;11.55;7.80;;;;;;;18.04;59.50;99385.84;4970803;28;20058;-82
2023/03/18 11:24:45;;;;;;;10.63;7.32;;;;;;;18.25;61.18;99387.47;4973508;28;20549;-78
2023/03/18 11:27:17;;;;;;;9.13;6.13;;;;;;;18.38;58.48;99387.97;4973248;28;20090;-82
2023/03/18 11:29:52;;;;;;;8.95;6.28;;;;;;;18.48;57.40;99380.78;4973399;28;20810;-82
2023/03/18 11:33:01;;;;;;;7.90;5.72;;;;;;;18.53;56.89;99379.47;4973429;28;20090;-79
2023/03/18 11:35:38;;;;;;;7.03;5.30;;;;;;;18.64;56.50;99384.63;4973043;28;20134;-83
2023/03/18 11:38:06;;;;;;;7.93;5.75;;;;;;;18.70;57.50;99376.03;4971640;28;20409;-80
2023/03/18 11:40:33;;;;;;;7.45;4.90;;;;;;;18.71;57.26;99371.53;4971507;28;20507;-80